createdAt,value
2022-12-15T00:00:46.912Z,0.00
2022-12-15T00:01:46.137Z,0.00
2022-12-15T00:02:46.101Z,0.00
2022-12-15T00:03:46.143Z,0.00
2022-12-15T00:04:46.078Z,0.00
2022-12-15T00:05:50.087Z,0.00
2022-12-15T00:06:46.110Z,0.00
2022-12-15T00:07:46.758Z,0.00
2022-12-15T00:08:46.039Z,0.00
2022-12-15T00:09:46.057Z,0.00
2022-12-15T00:10:46.006Z,0.00
2022-12-15T00:11:46.019Z,0.00
2022-12-15T00:12:45.988Z,0.00
2022-12-15T00:13:45.955Z,0.00
2022-12-15T00:14:46.063Z,0.00
2022-12-15T00:15:46.054Z,0.00
2022-12-15T00:16:45.947Z,0.00
2022-12-15T00:17:45.959Z,0.00
2022-12-15T00:18:45.993Z,0.00
2022-12-15T00:19:45.903Z,0.00
2022-12-15T00:20:45.893Z,0.00
2022-12-15T00:21:46.002Z,0.00
2022-12-15T00:22:45.903Z,0.00
2022-12-15T00:23:45.898Z,0.00
2022-12-15T00:24:49.803Z,0.00
2022-12-15T00:25:45.908Z,0.00
2022-12-15T00:26:45.908Z,0.00
2022-12-15T00:27:45.881Z,0.00
2022-12-15T00:28:45.882Z,0.00
2022-12-15T00:29:45.810Z,0.00
2022-12-15T00:30:45.826Z,0.00
2022-12-15T00:31:45.899Z,0.00
2022-12-15T00:32:45.830Z,0.00
2022-12-15T00:33:45.778Z,0.00
2022-12-15T00:34:45.760Z,0.00
2022-12-15T00:35:45.806Z,0.00
2022-12-15T00:36:45.803Z,0.00
2022-12-15T00:37:45.750Z,0.00
2022-12-15T00:38:45.752Z,0.00
2022-12-15T00:39:45.829Z,0.00
2022-12-15T00:40:45.716Z,0.00
2022-12-15T00:41:45.730Z,0.00
2022-12-15T00:42:45.715Z,0.00
2022-12-15T00:43:45.691Z,0.00
2022-12-15T00:44:45.695Z,0.00
2022-12-15T00:45:45.692Z,0.00
2022-12-15T00:46:45.761Z,0.00
2022-12-15T00:47:45.656Z,0.00
2022-12-15T00:48:45.673Z,0.00
2022-12-15T00:49:45.684Z,0.00
2022-12-15T00:50:45.664Z,0.00
2022-12-15T00:51:45.668Z,0.00
2022-12-15T00:52:45.663Z,0.00
2022-12-15T00:53:45.607Z,0.00
2022-12-15T00:54:45.595Z,0.00
2022-12-15T00:55:45.584Z,0.00
2022-12-15T00:56:45.616Z,0.00
2022-12-15T00:57:45.618Z,0.00
2022-12-15T00:58:45.609Z,0.00
2022-12-15T00:59:45.551Z,0.00
2022-12-15T01:00:45.566Z,0.00
2022-12-15T01:01:45.696Z,0.00
2022-12-15T01:02:45.757Z,0.00
2022-12-15T01:03:45.650Z,0.00
2022-12-15T01:04:45.548Z,0.00
2022-12-15T01:05:45.626Z,0.00
2022-12-15T01:06:45.563Z,0.00
2022-12-15T01:07:49.827Z,0.00
2022-12-15T01:08:45.510Z,0.00
2022-12-15T01:09:45.462Z,0.00
2022-12-15T01:10:45.500Z,0.00
2022-12-15T01:11:45.463Z,0.00
2022-12-15T01:12:45.568Z,0.00
2022-12-15T01:13:45.419Z,0.00
2022-12-15T01:14:45.409Z,0.00
2022-12-15T01:15:45.466Z,0.00
2022-12-15T01:16:45.474Z,0.00
2022-12-15T01:17:46.426Z,0.00
2022-12-15T01:18:49.640Z,0.00
2022-12-15T01:19:46.351Z,0.00
2022-12-15T01:20:45.361Z,0.00
2022-12-15T01:21:45.333Z,0.00
2022-12-15T01:22:45.326Z,0.00
2022-12-15T01:23:45.368Z,0.00
2022-12-15T01:24:45.341Z,0.00
2022-12-15T01:25:45.323Z,0.00
2022-12-15T01:26:45.499Z,0.00
2022-12-15T01:27:45.285Z,0.00
2022-12-15T01:28:45.291Z,0.00
2022-12-15T01:29:45.298Z,0.00
2022-12-15T01:30:45.264Z,0.00
2022-12-15T01:31:45.342Z,0.00
2022-12-15T01:32:46.319Z,0.00
2022-12-15T01:33:46.268Z,0.00
2022-12-15T01:34:45.275Z,0.00
2022-12-15T01:35:45.331Z,0.00
2022-12-15T01:36:45.262Z,0.00
2022-12-15T01:37:45.247Z,0.00
2022-12-15T01:38:48.157Z,0.00
2022-12-15T01:39:47.208Z,0.00
2022-12-15T01:40:45.810Z,0.00
2022-12-15T01:41:45.255Z,0.00
2022-12-15T01:42:45.167Z,0.00
2022-12-15T01:43:45.197Z,0.00
2022-12-15T01:44:45.135Z,0.00
2022-12-15T01:45:45.141Z,0.00
2022-12-15T01:46:45.175Z,0.00
2022-12-15T01:47:45.169Z,0.00
2022-12-15T01:48:45.109Z,0.00
2022-12-15T01:49:45.122Z,0.00
2022-12-15T01:50:45.107Z,0.00
2022-12-15T01:51:45.113Z,0.00
2022-12-15T01:52:45.132Z,0.00
2022-12-15T01:53:45.082Z,0.00
2022-12-15T01:54:45.116Z,0.00
2022-12-15T01:55:45.046Z,0.00
2022-12-15T01:56:45.072Z,0.00
2022-12-15T01:57:44.998Z,0.00
2022-12-15T01:58:45.048Z,0.00
2022-12-15T01:59:45.014Z,0.00
2022-12-15T02:00:45.067Z,0.00
2022-12-15T02:01:45.066Z,0.00
2022-12-15T02:02:46.144Z,0.00
2022-12-15T02:03:45.015Z,0.00
2022-12-15T02:04:44.961Z,0.00
2022-12-15T02:05:45.027Z,0.00
2022-12-15T02:06:44.923Z,0.00
2022-12-15T02:07:44.923Z,0.00
2022-12-15T02:08:44.959Z,0.00
2022-12-15T02:09:44.932Z,0.00
2022-12-15T02:10:44.984Z,0.00
2022-12-15T02:11:44.969Z,0.00
2022-12-15T02:12:44.904Z,0.00
2022-12-15T02:13:44.899Z,0.00
2022-12-15T02:14:44.903Z,0.00
2022-12-15T02:15:44.918Z,0.00
2022-12-15T02:16:44.935Z,0.00
2022-12-15T02:17:45.820Z,0.00
2022-12-15T02:18:44.849Z,0.00
2022-12-15T02:19:45.082Z,0.00
2022-12-15T02:20:44.799Z,0.00
2022-12-15T02:21:44.839Z,0.00
2022-12-15T02:22:44.810Z,0.00
2022-12-15T02:23:44.814Z,0.00
2022-12-15T02:24:44.812Z,0.00
2022-12-15T02:25:44.810Z,0.00
2022-12-15T02:26:44.875Z,0.00
2022-12-15T02:27:44.807Z,0.00
2022-12-15T02:28:44.771Z,0.00
2022-12-15T02:29:44.738Z,0.00
2022-12-15T02:30:44.820Z,0.00
2022-12-15T02:31:44.955Z,0.00
2022-12-15T02:32:45.765Z,0.00
2022-12-15T02:33:44.753Z,0.00
2022-12-15T02:34:44.698Z,0.00
2022-12-15T02:35:44.721Z,0.00
2022-12-15T02:36:44.804Z,0.00
2022-12-15T02:37:44.715Z,0.00
2022-12-15T02:38:44.659Z,0.00
2022-12-15T02:39:44.660Z,0.00
2022-12-15T02:40:44.645Z,0.00
2022-12-15T02:41:44.646Z,0.00
2022-12-15T02:42:44.638Z,0.00
2022-12-15T02:43:44.651Z,0.00
2022-12-15T02:44:44.641Z,0.00
2022-12-15T02:45:44.644Z,0.00
2022-12-15T02:46:44.611Z,0.00
2022-12-15T02:47:44.676Z,0.00
2022-12-15T02:48:44.592Z,0.00
2022-12-15T02:49:44.697Z,0.00
2022-12-15T02:50:44.562Z,0.00
2022-12-15T02:51:44.619Z,0.00
2022-12-15T02:52:44.615Z,0.00
2022-12-15T02:53:44.566Z,0.00
2022-12-15T02:54:44.594Z,0.00
2022-12-15T02:55:44.522Z,0.00
2022-12-15T02:56:44.601Z,0.00
2022-12-15T02:57:44.536Z,0.00
2022-12-15T02:58:44.633Z,0.00
2022-12-15T02:59:44.588Z,0.00
2022-12-15T03:00:44.650Z,0.00
2022-12-15T03:01:44.691Z,0.00
2022-12-15T03:02:44.636Z,0.00
2022-12-15T03:03:45.666Z,0.00
2022-12-15T03:04:44.553Z,0.00
2022-12-15T03:05:44.480Z,0.00
2022-12-15T03:06:44.658Z,0.00
2022-12-15T03:07:44.417Z,0.00
2022-12-15T03:08:44.436Z,0.00
2022-12-15T03:09:44.428Z,0.00
2022-12-15T03:10:44.536Z,0.00
2022-12-15T03:11:44.464Z,0.00
2022-12-15T03:12:44.433Z,0.00
2022-12-15T03:13:44.368Z,0.00
2022-12-15T03:14:44.338Z,0.00
2022-12-15T03:15:44.379Z,0.00
2022-12-15T03:16:44.366Z,0.00
2022-12-15T03:17:44.317Z,0.00
2022-12-15T03:18:44.300Z,0.00
2022-12-15T03:19:44.277Z,0.00
2022-12-15T03:20:44.283Z,0.00
2022-12-15T03:21:44.263Z,0.00
2022-12-15T03:22:44.347Z,0.00
2022-12-15T03:23:44.245Z,0.00
2022-12-15T03:24:44.255Z,0.00
2022-12-15T03:25:44.250Z,0.00
2022-12-15T03:26:44.255Z,0.00
2022-12-15T03:27:44.253Z,0.00
2022-12-15T03:28:44.195Z,0.00
2022-12-15T03:29:44.316Z,0.00
2022-12-15T03:30:44.209Z,0.00
2022-12-15T03:31:44.372Z,0.00
2022-12-15T03:45:50.837Z,0.00
2022-12-15T03:46:50.856Z,0.00
2022-12-15T03:47:51.022Z,0.00
2022-12-15T03:48:50.840Z,0.00
2022-12-15T03:49:50.720Z,0.00
2022-12-15T03:50:50.679Z,0.00
2022-12-15T03:51:50.663Z,0.00
2022-12-15T03:52:50.647Z,0.00
2022-12-15T03:53:50.671Z,0.00
2022-12-15T03:54:50.659Z,0.00
2022-12-15T03:55:50.604Z,0.00
2022-12-15T03:56:50.574Z,0.00
2022-12-15T03:57:50.698Z,0.00
2022-12-15T03:58:50.602Z,0.00
2022-12-15T03:59:50.598Z,0.00
2022-12-15T04:00:50.594Z,0.00
2022-12-15T04:01:50.734Z,0.00
2022-12-15T04:02:50.778Z,0.00
2022-12-15T04:03:53.214Z,0.00
2022-12-15T04:04:52.797Z,0.00
2022-12-15T04:05:51.725Z,0.00
2022-12-15T04:06:51.852Z,0.00
2022-12-15T04:07:51.810Z,0.00
2022-12-15T04:08:51.744Z,0.00
2022-12-15T04:09:51.755Z,0.00
2022-12-15T04:10:51.775Z,0.00
2022-12-15T04:11:51.696Z,0.00
2022-12-15T04:12:51.824Z,0.00
2022-12-15T04:13:51.728Z,0.00
2022-12-15T04:14:51.637Z,0.00
2022-12-15T04:15:51.614Z,0.00
2022-12-15T04:16:51.647Z,0.00
2022-12-15T04:17:51.581Z,0.00
2022-12-15T04:18:51.596Z,0.00
2022-12-15T04:19:51.585Z,0.00
2022-12-15T04:20:51.570Z,0.00
2022-12-15T04:21:51.572Z,0.00
2022-12-15T04:22:51.615Z,0.00
2022-12-15T04:23:51.563Z,0.00
2022-12-15T04:24:51.544Z,0.00
2022-12-15T04:25:51.550Z,0.00
2022-12-15T04:26:51.548Z,0.00
2022-12-15T04:27:51.556Z,0.00
2022-12-15T04:28:51.469Z,0.00
2022-12-15T04:29:51.542Z,0.00
2022-12-15T04:30:51.580Z,0.00
2022-12-15T04:31:51.461Z,0.00
2022-12-15T04:32:51.493Z,0.00
2022-12-15T04:33:51.613Z,0.00
2022-12-15T04:34:51.456Z,0.00
2022-12-15T04:35:51.446Z,0.00
2022-12-15T04:36:51.432Z,0.00
2022-12-15T04:37:51.456Z,0.00
2022-12-15T04:38:51.390Z,0.00
2022-12-15T04:39:51.424Z,0.00
2022-12-15T04:40:51.451Z,0.00
2022-12-15T04:41:51.387Z,0.00
2022-12-15T04:42:51.390Z,0.00
2022-12-15T04:43:51.375Z,0.00
2022-12-15T04:44:52.387Z,0.00
2022-12-15T04:45:51.401Z,0.00
2022-12-15T04:46:51.349Z,0.00
2022-12-15T04:47:51.431Z,0.00
2022-12-15T04:48:51.320Z,0.00
2022-12-15T04:49:51.336Z,0.00
2022-12-15T04:50:51.301Z,0.00
2022-12-15T04:51:51.307Z,0.00
2022-12-15T04:52:51.348Z,0.00
2022-12-15T04:53:51.281Z,0.00
2022-12-15T04:54:51.248Z,0.00
2022-12-15T04:55:51.267Z,0.00
2022-12-15T04:56:51.288Z,0.00
2022-12-15T04:57:51.300Z,0.00
2022-12-15T04:58:51.214Z,0.00
2022-12-15T04:59:51.201Z,0.00
2022-12-15T05:00:51.204Z,0.00
2022-12-15T05:01:51.394Z,0.00
2022-12-15T05:02:51.292Z,0.00
2022-12-15T05:03:51.220Z,0.00
2022-12-15T05:04:51.216Z,0.00
2022-12-15T05:05:51.184Z,0.00
2022-12-15T05:06:51.171Z,0.00
2022-12-15T05:07:51.157Z,0.00
2022-12-15T05:08:51.304Z,0.00
2022-12-15T05:09:51.124Z,0.00
2022-12-15T05:10:51.144Z,0.00
2022-12-15T05:11:51.102Z,0.00
2022-12-15T05:12:51.159Z,0.00
2022-12-15T05:13:51.121Z,0.00
2022-12-15T05:14:51.073Z,0.00
2022-12-15T05:15:51.239Z,0.00
2022-12-15T05:16:51.120Z,0.00
2022-12-15T05:17:51.068Z,0.00
2022-12-15T05:18:51.052Z,0.00
2022-12-15T05:19:51.041Z,0.00
2022-12-15T05:20:51.094Z,0.00
2022-12-15T05:21:51.024Z,0.00
2022-12-15T05:22:51.009Z,0.00
2022-12-15T05:23:51.013Z,0.00
2022-12-15T05:24:51.011Z,0.00
2022-12-15T05:25:50.979Z,0.00
2022-12-15T05:26:53.184Z,0.00
2022-12-15T05:27:51.529Z,0.00
2022-12-15T05:28:50.941Z,0.00
2022-12-15T05:29:50.976Z,0.00
2022-12-15T05:30:51.048Z,0.00
2022-12-15T05:31:50.958Z,0.00
2022-12-15T05:32:50.978Z,0.00
2022-12-15T05:33:50.882Z,0.00
2022-12-15T05:34:50.914Z,0.00
2022-12-15T05:35:50.855Z,0.00
2022-12-15T05:36:50.934Z,0.00
2022-12-15T05:37:50.903Z,0.00
2022-12-15T05:38:50.872Z,0.00
2022-12-15T05:39:50.850Z,0.00
2022-12-15T05:40:50.903Z,0.00
2022-12-15T05:41:50.860Z,0.00
2022-12-15T05:42:50.859Z,0.00
2022-12-15T05:43:50.851Z,0.00
2022-12-15T05:44:50.781Z,0.00
2022-12-15T05:45:50.812Z,0.00
2022-12-15T05:46:50.859Z,0.00
2022-12-15T05:47:50.824Z,0.00
2022-12-15T05:48:50.830Z,0.00
2022-12-15T05:49:50.770Z,0.00
2022-12-15T05:50:50.784Z,0.00
2022-12-15T05:51:50.748Z,0.00
2022-12-15T05:52:50.835Z,0.00
2022-12-15T05:53:50.703Z,0.00
2022-12-15T05:54:50.707Z,0.00
2022-12-15T05:55:50.753Z,0.00
2022-12-15T05:56:50.751Z,0.00
2022-12-15T05:57:50.736Z,0.00
2022-12-15T05:58:50.729Z,0.00
2022-12-15T05:59:50.825Z,0.00
2022-12-15T06:00:50.686Z,0.00
2022-12-15T06:01:50.738Z,0.00
2022-12-15T06:02:50.691Z,0.00
2022-12-15T06:03:50.637Z,0.00
2022-12-15T06:04:50.795Z,0.00
2022-12-15T06:05:56.323Z,0.00
2022-12-15T06:06:51.666Z,0.00
2022-12-15T06:07:50.640Z,0.00
2022-12-15T06:08:50.595Z,0.00
2022-12-15T06:09:50.644Z,0.00
2022-12-15T06:10:50.572Z,0.00
2022-12-15T06:11:50.571Z,0.00
2022-12-15T06:12:50.590Z,0.00
2022-12-15T06:13:50.596Z,0.00
2022-12-15T06:14:50.596Z,0.00
2022-12-15T06:15:50.628Z,0.00
2022-12-15T06:16:51.702Z,0.00
2022-12-15T06:17:50.557Z,0.00
2022-12-15T06:18:50.516Z,0.00
2022-12-15T06:19:50.466Z,0.00
2022-12-15T06:20:50.507Z,0.00
2022-12-15T06:21:50.480Z,0.00
2022-12-15T06:22:50.501Z,0.00
2022-12-15T06:23:50.465Z,0.00
2022-12-15T06:24:50.475Z,0.00
2022-12-15T06:25:51.388Z,0.00
2022-12-15T06:26:50.469Z,0.00
2022-12-15T06:27:50.554Z,0.00
2022-12-15T06:28:50.458Z,0.00
2022-12-15T06:29:50.414Z,0.00
2022-12-15T06:30:50.381Z,0.00
2022-12-15T06:31:50.460Z,0.00
2022-12-15T06:32:50.389Z,0.00
2022-12-15T06:33:53.495Z,0.00
2022-12-15T06:34:51.428Z,0.00
2022-12-15T06:35:50.381Z,0.00
2022-12-15T06:36:50.392Z,0.00
2022-12-15T06:37:50.347Z,0.00
2022-12-15T06:38:50.325Z,0.00
2022-12-15T06:39:50.340Z,0.00
2022-12-15T06:40:50.308Z,0.00
2022-12-15T06:41:50.425Z,0.00
2022-12-15T06:42:50.359Z,0.00
2022-12-15T06:43:51.277Z,0.00
2022-12-15T06:44:50.323Z,0.00
2022-12-15T06:45:50.252Z,0.00
2022-12-15T06:46:50.293Z,0.00
2022-12-15T06:47:50.265Z,0.00
2022-12-15T06:48:50.281Z,0.00
2022-12-15T06:49:50.222Z,0.00
2022-12-15T06:50:50.495Z,0.00
2022-12-15T06:51:50.199Z,0.00
2022-12-15T06:52:50.754Z,0.00
2022-12-15T06:53:50.171Z,0.00
2022-12-15T06:54:50.216Z,0.00
2022-12-15T06:55:50.183Z,0.00
2022-12-15T06:56:50.222Z,0.00
2022-12-15T06:57:50.318Z,0.00
2022-12-15T06:58:50.217Z,0.00
2022-12-15T06:59:50.136Z,0.00
2022-12-15T07:00:50.118Z,0.00
2022-12-15T07:01:50.291Z,0.00
2022-12-15T07:02:50.556Z,0.00
2022-12-15T07:03:50.229Z,0.00
2022-12-15T07:04:50.176Z,0.00
2022-12-15T07:05:50.124Z,0.00
2022-12-15T07:06:50.141Z,0.00
2022-12-15T07:07:50.128Z,0.00
2022-12-15T07:08:50.044Z,0.00
2022-12-15T07:09:50.066Z,0.00
2022-12-15T07:10:50.084Z,0.00
2022-12-15T07:11:50.071Z,0.00
2022-12-15T07:12:50.008Z,0.00
2022-12-15T07:13:50.057Z,0.00
2022-12-15T07:14:53.397Z,0.00
2022-12-15T07:15:51.062Z,0.00
2022-12-15T07:16:50.004Z,0.00
2022-12-15T07:17:50.007Z,0.00
2022-12-15T07:18:50.005Z,0.00
2022-12-15T07:19:49.986Z,0.00
2022-12-15T07:20:50.002Z,0.00
2022-12-15T07:21:49.914Z,0.00
2022-12-15T07:22:49.939Z,0.00
2022-12-15T07:24:23.995Z,0.00
2022-12-15T07:24:50.450Z,0.00
2022-12-15T07:25:50.274Z,0.00
2022-12-15T07:26:50.057Z,0.00
2022-12-15T07:27:49.938Z,0.00
2022-12-15T07:28:49.909Z,0.00
2022-12-15T07:29:49.858Z,5.62
2022-12-15T07:30:49.827Z,5.62
2022-12-15T07:31:49.890Z,5.62
2022-12-15T07:32:50.081Z,5.62
2022-12-15T07:33:49.829Z,5.62
2022-12-15T07:34:49.863Z,5.62
2022-12-15T07:35:49.826Z,5.62
2022-12-15T07:36:52.412Z,5.62
2022-12-15T07:37:50.774Z,5.62
2022-12-15T07:38:50.888Z,5.62
2022-12-15T07:39:49.799Z,5.62
2022-12-15T07:40:49.752Z,5.62
2022-12-15T07:41:50.086Z,5.62
2022-12-15T07:42:49.746Z,5.62
2022-12-15T07:43:49.751Z,5.62
2022-12-15T07:44:50.084Z,5.62
2022-12-15T07:45:51.558Z,5.62
2022-12-15T07:46:49.719Z,5.62
2022-12-15T07:47:49.699Z,5.62
2022-12-15T07:48:50.222Z,5.62
2022-12-15T07:49:49.657Z,11.25
2022-12-15T07:50:50.384Z,11.25
2022-12-15T07:51:49.700Z,11.25
2022-12-15T07:52:49.782Z,11.25
2022-12-15T07:53:49.689Z,11.25
2022-12-15T07:54:49.761Z,11.25
2022-12-15T07:56:06.862Z,11.25
2022-12-15T07:56:51.656Z,11.25
2022-12-15T07:57:49.738Z,11.25
2022-12-15T07:58:49.627Z,11.25
2022-12-15T07:59:49.628Z,11.25
2022-12-15T08:00:49.792Z,11.25
2022-12-15T08:01:49.899Z,11.25
2022-12-15T08:02:50.144Z,11.25
2022-12-15T08:03:49.660Z,16.88
2022-12-15T08:04:49.539Z,16.88
2022-12-15T08:05:49.532Z,16.88
2022-12-15T08:06:49.523Z,22.50
2022-12-15T08:07:50.447Z,22.50
2022-12-15T08:08:50.184Z,22.50
2022-12-15T08:09:49.545Z,22.50
2022-12-15T08:10:49.512Z,22.50
2022-12-15T08:11:49.581Z,22.50
2022-12-15T08:12:49.497Z,22.50
2022-12-15T08:14:07.962Z,22.50
2022-12-15T08:14:51.480Z,22.50
2022-12-15T08:15:49.468Z,22.50
2022-12-15T08:16:49.505Z,22.50
2022-12-15T08:17:49.443Z,22.50
2022-12-15T08:18:49.467Z,28.12
2022-12-15T08:19:49.439Z,28.12
2022-12-15T08:20:50.217Z,28.12
2022-12-15T08:21:49.369Z,28.12
2022-12-15T08:22:49.371Z,28.12
2022-12-15T08:23:49.393Z,28.12
2022-12-15T08:24:49.381Z,33.75
2022-12-15T08:25:49.512Z,33.75
2022-12-15T08:26:50.153Z,33.75
2022-12-15T08:27:49.380Z,33.75
2022-12-15T08:28:49.329Z,33.75
2022-12-15T08:29:51.016Z,33.75
2022-12-15T08:30:50.301Z,33.75
2022-12-15T08:31:49.338Z,33.75
2022-12-15T08:32:52.095Z,33.75
2022-12-15T08:33:50.377Z,33.75
2022-12-15T08:34:49.261Z,39.38
2022-12-15T08:35:56.689Z,39.38
2022-12-15T08:36:50.259Z,39.38
2022-12-15T08:37:49.313Z,33.75
2022-12-15T08:38:49.243Z,33.75
2022-12-15T08:39:49.278Z,33.75
2022-12-15T08:40:49.248Z,33.75
2022-12-15T08:41:49.197Z,39.38
2022-12-15T08:42:49.194Z,39.38
2022-12-15T08:43:49.609Z,39.38
2022-12-15T08:44:50.162Z,39.38
2022-12-15T08:45:49.252Z,39.38
2022-12-15T08:46:49.216Z,39.38
2022-12-15T08:47:49.170Z,39.38
2022-12-15T08:48:49.123Z,39.38
2022-12-15T08:49:49.126Z,39.38
2022-12-15T08:50:49.137Z,39.38
2022-12-15T08:51:49.958Z,39.38
2022-12-15T08:53:13.723Z,39.38
2022-12-15T08:53:51.289Z,45.00
2022-12-15T08:54:49.175Z,45.00
2022-12-15T08:55:49.097Z,45.00
2022-12-15T08:56:49.137Z,50.62
2022-12-15T08:57:49.052Z,50.62
2022-12-15T08:58:49.076Z,50.62
2022-12-15T08:59:49.110Z,50.62
2022-12-15T09:00:49.167Z,50.62
2022-12-15T09:01:49.235Z,50.62
2022-12-15T09:02:49.108Z,50.62
2022-12-15T09:03:49.021Z,50.62
2022-12-15T09:04:49.112Z,50.62
2022-12-15T09:05:49.046Z,50.62
2022-12-15T09:06:50.711Z,50.62
2022-12-15T09:07:49.026Z,56.25
2022-12-15T09:08:50.568Z,61.88
2022-12-15T09:09:48.977Z,61.88
2022-12-15T09:10:52.390Z,61.88
2022-12-15T09:11:48.981Z,61.88
2022-12-15T09:12:48.958Z,61.88
2022-12-15T09:13:48.928Z,61.88
2022-12-15T09:14:48.949Z,61.88
2022-12-15T09:16:17.813Z,61.88
2022-12-15T09:16:51.042Z,61.88
2022-12-15T09:17:48.903Z,56.25
2022-12-15T09:18:48.916Z,61.88
2022-12-15T09:19:48.917Z,61.88
2022-12-15T09:20:48.883Z,61.88
2022-12-15T09:21:48.919Z,61.88
2022-12-15T09:22:50.401Z,61.88
2022-12-15T09:23:48.881Z,56.25
2022-12-15T09:24:48.832Z,61.88
2022-12-15T09:25:48.836Z,61.88
2022-12-15T09:26:48.987Z,61.88
2022-12-15T09:27:48.802Z,67.50
2022-12-15T09:28:50.686Z,67.50
2022-12-15T09:29:48.793Z,67.50
2022-12-15T09:30:48.840Z,67.50
2022-12-15T09:31:48.773Z,67.50
2022-12-15T09:32:48.744Z,67.50
2022-12-15T09:33:48.915Z,67.50
2022-12-15T09:34:48.758Z,67.50
2022-12-15T09:35:48.709Z,67.50
2022-12-15T09:36:48.717Z,73.12
2022-12-15T09:37:51.704Z,78.75
2022-12-15T09:38:49.721Z,84.38
2022-12-15T09:39:48.692Z,84.38
2022-12-15T09:40:49.882Z,84.38
2022-12-15T09:41:48.662Z,84.38
2022-12-15T09:42:59.729Z,78.75
2022-12-15T09:43:51.085Z,78.75
2022-12-15T09:44:48.657Z,78.75
2022-12-15T09:45:48.670Z,78.75
2022-12-15T09:46:50.372Z,78.75
2022-12-15T09:47:48.625Z,78.75
2022-12-15T09:48:48.619Z,84.38
2022-12-15T09:49:48.591Z,90.00
2022-12-15T09:50:48.567Z,84.38
2022-12-15T09:51:48.613Z,84.38
2022-12-15T09:52:48.598Z,84.38
2022-12-15T09:53:56.609Z,84.38
2022-12-15T09:54:50.622Z,84.38
2022-12-15T09:55:48.550Z,84.38
2022-12-15T09:56:49.837Z,84.38
2022-12-15T09:57:48.512Z,84.38
2022-12-15T09:58:50.555Z,84.38
2022-12-15T09:59:48.503Z,84.38
2022-12-15T10:00:50.740Z,84.38
2022-12-15T10:01:48.494Z,84.38
2022-12-15T10:02:49.847Z,90.00
2022-12-15T10:03:48.606Z,90.00
2022-12-15T10:04:50.812Z,90.00
2022-12-15T10:06:14.397Z,90.00
2022-12-15T10:06:50.807Z,90.00
2022-12-15T10:08:50.582Z,90.00
2022-12-15T10:09:48.493Z,90.00
2022-12-15T10:10:49.370Z,90.00
2022-12-15T10:11:50.346Z,90.00
2022-12-15T10:13:50.420Z,90.00
2022-12-15T10:14:49.989Z,90.00
2022-12-15T10:15:50.196Z,90.00
2022-12-15T10:16:48.359Z,90.00
2022-12-15T10:17:50.320Z,90.00
2022-12-15T10:18:50.416Z,90.00
2022-12-15T10:19:50.038Z,90.00
2022-12-15T10:20:48.513Z,90.00
2022-12-15T10:21:50.560Z,90.00
2022-12-15T10:22:50.332Z,90.00
2022-12-15T10:23:48.297Z,84.38
2022-12-15T10:25:51.458Z,84.38
2022-12-15T10:26:48.253Z,84.38
2022-12-15T10:27:49.296Z,84.38
2022-12-15T10:28:51.210Z,84.38
2022-12-15T10:29:50.744Z,84.38
2022-12-15T10:30:48.250Z,84.38
2022-12-15T10:31:48.218Z,84.38
2022-12-15T10:32:51.299Z,84.38
2022-12-15T10:33:50.303Z,84.38
2022-12-15T10:34:48.510Z,84.38
2022-12-15T10:35:48.177Z,90.00
2022-12-15T10:36:48.143Z,90.00
2022-12-15T10:37:48.168Z,90.00
2022-12-15T10:38:50.559Z,90.00
2022-12-15T10:39:50.183Z,90.00
2022-12-15T10:40:50.608Z,90.00
2022-12-15T10:41:48.144Z,90.00
2022-12-15T10:42:48.378Z,84.38
2022-12-15T10:43:48.102Z,84.38
2022-12-15T10:44:50.496Z,84.38
2022-12-15T10:45:48.220Z,84.38
2022-12-15T10:46:48.109Z,90.00
2022-12-15T10:47:48.032Z,90.00
2022-12-15T10:48:48.831Z,90.00
2022-12-15T10:49:48.524Z,90.00
2022-12-15T10:50:50.242Z,95.62
2022-12-15T10:51:48.011Z,90.00
2022-12-15T10:52:48.058Z,95.62
2022-12-15T10:53:50.214Z,101.25
2022-12-15T10:54:48.455Z,106.88
2022-12-15T10:55:49.757Z,101.25
2022-12-15T10:56:47.973Z,101.25
2022-12-15T10:57:47.976Z,101.25
2022-12-15T10:58:50.195Z,101.25
2022-12-15T10:59:50.332Z,95.62
2022-12-15T11:00:50.832Z,90.00
2022-12-15T11:01:47.998Z,90.00
2022-12-15T11:02:48.053Z,90.00
2022-12-15T11:03:48.097Z,90.00
2022-12-15T11:04:47.912Z,84.38
2022-12-15T11:05:47.878Z,90.00
2022-12-15T11:06:47.867Z,90.00
2022-12-15T11:07:47.852Z,95.62
2022-12-15T11:08:47.840Z,95.62
2022-12-15T11:09:47.959Z,95.62
2022-12-15T11:10:47.860Z,95.62
2022-12-15T11:11:47.777Z,95.62
2022-12-15T11:12:50.439Z,101.25
2022-12-15T11:13:47.890Z,101.25
2022-12-15T11:14:47.923Z,101.25
2022-12-15T11:15:50.763Z,101.25
2022-12-15T11:16:47.764Z,101.25
2022-12-15T11:17:47.797Z,101.25
2022-12-15T11:18:48.714Z,95.62
2022-12-15T11:19:47.834Z,95.62
2022-12-15T11:20:48.590Z,101.25
2022-12-15T11:21:47.694Z,101.25
2022-12-15T11:22:47.716Z,101.25
2022-12-15T11:23:48.768Z,101.25
2022-12-15T11:25:48.730Z,101.25
2022-12-15T11:26:48.890Z,101.25
2022-12-15T11:27:48.687Z,101.25
2022-12-15T11:28:47.673Z,101.25
2022-12-15T11:29:50.124Z,101.25
2022-12-15T11:30:47.632Z,101.25
2022-12-15T11:31:48.753Z,90.00
2022-12-15T11:32:48.737Z,95.62
2022-12-15T11:33:47.685Z,95.62
2022-12-15T11:34:47.674Z,95.62
2022-12-15T11:35:48.904Z,95.62
2022-12-15T11:36:48.487Z,90.00
2022-12-15T11:37:47.564Z,90.00
2022-12-15T11:38:47.733Z,90.00
2022-12-15T11:39:47.559Z,95.62
2022-12-15T11:40:47.622Z,95.62
2022-12-15T11:41:47.540Z,95.62
2022-12-15T11:42:47.545Z,95.62
2022-12-15T11:43:50.336Z,95.62
2022-12-15T11:44:48.983Z,101.25
2022-12-15T11:45:47.598Z,101.25
2022-12-15T11:46:47.482Z,101.25
2022-12-15T11:47:47.531Z,106.88
2022-12-15T11:48:47.507Z,112.50
2022-12-15T11:49:47.543Z,112.50
2022-12-15T11:50:47.441Z,112.50
2022-12-15T11:51:47.453Z,106.88
2022-12-15T11:52:47.497Z,95.62
2022-12-15T11:53:47.464Z,95.62
2022-12-15T11:54:48.208Z,95.62
2022-12-15T11:55:47.473Z,84.38
2022-12-15T11:56:47.376Z,84.38
2022-12-15T11:57:47.424Z,84.38
2022-12-15T11:58:48.723Z,78.75
2022-12-15T11:59:47.452Z,84.38
2022-12-15T12:00:47.390Z,84.38
2022-12-15T12:01:53.893Z,84.38
2022-12-15T12:02:49.461Z,84.38
2022-12-15T12:03:47.390Z,78.75
2022-12-15T12:04:47.374Z,78.75
2022-12-15T12:05:47.311Z,78.75
2022-12-15T12:06:47.400Z,78.75
2022-12-15T12:07:47.305Z,78.75
2022-12-15T12:08:48.219Z,73.12
2022-12-15T12:09:48.587Z,78.75
2022-12-15T12:10:47.381Z,84.38
2022-12-15T12:11:48.837Z,90.00
2022-12-15T12:12:47.247Z,90.00
2022-12-15T12:13:47.283Z,95.62
2022-12-15T12:14:50.619Z,95.62
2022-12-15T12:15:47.297Z,95.62
2022-12-15T12:16:47.310Z,90.00
2022-12-15T12:17:47.252Z,90.00
2022-12-15T12:18:50.643Z,84.38
2022-12-15T12:19:50.863Z,78.75
2022-12-15T12:20:48.360Z,84.38
2022-12-15T12:21:47.213Z,84.38
2022-12-15T12:22:47.181Z,78.75
2022-12-15T12:23:47.143Z,84.38
2022-12-15T12:24:48.963Z,73.12
2022-12-15T12:25:47.181Z,73.12
2022-12-15T12:26:48.631Z,73.12
2022-12-15T12:27:48.807Z,84.38
2022-12-15T12:28:48.854Z,84.38
2022-12-15T12:29:48.684Z,84.38
2022-12-15T12:30:48.707Z,84.38
2022-12-15T12:31:47.096Z,78.75
2022-12-15T12:32:47.052Z,78.75
2022-12-15T12:33:47.086Z,78.75
2022-12-15T12:34:47.105Z,78.75
2022-12-15T12:35:47.078Z,78.75
2022-12-15T12:36:48.939Z,84.38
2022-12-15T12:37:47.093Z,84.38
2022-12-15T12:38:50.496Z,84.38
2022-12-15T12:39:46.976Z,90.00
2022-12-15T12:40:47.007Z,90.00
2022-12-15T12:41:47.824Z,84.38
2022-12-15T12:42:46.975Z,90.00
2022-12-15T12:43:50.417Z,84.38
2022-12-15T12:44:46.978Z,78.75
2022-12-15T12:45:46.961Z,84.38
2022-12-15T12:46:46.917Z,78.75
2022-12-15T12:47:46.966Z,84.38
2022-12-15T12:48:48.634Z,84.38
2022-12-15T12:49:46.884Z,90.00
2022-12-15T12:50:47.025Z,90.00
2022-12-15T12:51:46.893Z,90.00
2022-12-15T12:52:46.901Z,84.38
2022-12-15T12:53:46.857Z,78.75
2022-12-15T12:54:46.907Z,73.12
2022-12-15T12:55:47.892Z,73.12
2022-12-15T12:56:50.441Z,73.12
2022-12-15T12:57:46.845Z,67.50
2022-12-15T12:59:49.139Z,61.88
2022-12-15T13:00:48.478Z,61.88
2022-12-15T13:01:46.979Z,56.25
2022-12-15T13:02:47.529Z,56.25
2022-12-15T13:03:46.784Z,56.25
2022-12-15T13:04:46.758Z,61.88
2022-12-15T13:05:46.825Z,61.88
2022-12-15T13:06:46.777Z,61.88
2022-12-15T13:07:46.826Z,67.50
2022-12-15T13:09:47.849Z,61.88
2022-12-15T13:10:47.215Z,56.25
2022-12-15T13:11:46.747Z,67.50
2022-12-15T13:13:53.014Z,67.50
2022-12-15T13:14:48.259Z,67.50
2022-12-15T13:15:46.681Z,67.50
2022-12-15T13:17:16.881Z,67.50
2022-12-15T13:17:48.709Z,67.50
2022-12-15T13:18:47.683Z,67.50
2022-12-15T13:19:52.112Z,67.50
2022-12-15T13:20:48.852Z,67.50
2022-12-15T13:21:48.853Z,67.50
2022-12-15T13:22:46.609Z,67.50
2022-12-15T13:23:46.701Z,73.12
2022-12-15T13:24:46.603Z,73.12
2022-12-15T13:25:53.797Z,73.12
2022-12-15T13:26:48.783Z,73.12